createdAt,value
2019-01-17T00:01:47.347Z,11.23
2019-01-17T00:04:45.597Z,10.80
2019-01-17T00:07:33.294Z,10.90
2019-01-17T00:10:28.494Z,12.43
2019-01-17T00:13:35.716Z,10.33
2019-01-17T00:16:34.042Z,11.70
2019-01-17T00:19:22.019Z,10.37
2019-01-17T00:22:07.465Z,10.47
2019-01-17T00:25:05.818Z,10.17
2019-01-17T00:27:53.489Z,10.97
2019-01-17T00:30:42.811Z,11.23
2019-01-17T00:33:30.978Z,11.00
2019-01-17T00:36:38.405Z,10.60
2019-01-17T00:39:26.769Z,10.87
2019-01-17T00:42:05.739Z,12.10
2019-01-17T00:45:07.152Z,11.03
2019-01-17T00:48:14.486Z,11.00
2019-01-17T00:51:03.270Z,10.67
2019-01-17T00:53:44.755Z,11.00
2019-01-17T00:56:34.083Z,10.77
2019-01-17T00:59:32.144Z,11.77
2019-01-17T01:02:19.839Z,11.80
2019-01-17T01:05:12.074Z,12.40
2019-01-17T01:08:04.304Z,12.30
2019-01-17T01:10:53.923Z,12.10
2019-01-17T01:13:45.985Z,13.67
2019-01-17T01:16:31.470Z,14.20
2019-01-17T01:19:18.965Z,11.93
2019-01-17T01:22:06.747Z,12.20
2019-01-17T01:25:02.081Z,10.60
2019-01-17T01:27:54.073Z,10.13
2019-01-17T01:30:58.500Z,8.87
2019-01-17T01:33:47.139Z,10.30
2019-01-17T01:36:39.255Z,8.60
2019-01-17T01:39:37.099Z,8.90
2019-01-17T01:42:38.021Z,10.80
2019-01-17T01:45:26.319Z,9.10
2019-01-17T01:48:21.466Z,8.10
2019-01-17T01:51:09.065Z,8.90
2019-01-17T01:53:40.014Z,8.20
2019-01-17T01:56:10.386Z,11.10
2019-01-17T01:58:40.763Z,9.53
2019-01-17T02:01:11.314Z,11.83
2019-01-17T02:03:41.719Z,13.50
2019-01-17T02:06:12.361Z,13.50
2019-01-17T02:08:42.774Z,13.50
2019-01-17T02:11:13.154Z,14.07
2019-01-17T02:13:43.859Z,12.77
2019-01-17T02:16:14.211Z,11.90
2019-01-17T02:18:45.067Z,14.27
2019-01-17T02:21:15.472Z,12.93
2019-01-17T02:23:45.875Z,12.93
2019-01-17T02:26:16.255Z,13.20
2019-01-17T02:28:46.775Z,12.70
2019-01-17T02:31:17.126Z,10.97
2019-01-17T02:33:47.535Z,10.10
2019-01-17T02:36:18.040Z,8.80
2019-01-17T02:38:48.460Z,9.10
2019-01-17T02:41:18.856Z,9.73
2019-01-17T02:43:49.312Z,8.60
2019-01-17T02:46:19.667Z,7.77
2019-01-17T02:48:50.064Z,7.67
2019-01-17T02:51:20.429Z,7.80
2019-01-17T02:53:50.801Z,8.80
2019-01-17T02:56:21.165Z,7.53
2019-01-17T02:58:51.555Z,8.23
2019-01-17T03:01:21.908Z,7.40
2019-01-17T03:03:52.333Z,7.70
2019-01-17T03:06:22.727Z,7.70
2019-01-17T03:08:53.114Z,7.50
2019-01-17T03:11:23.641Z,8.73
2019-01-17T03:13:54.067Z,8.80
2019-01-17T03:16:24.493Z,9.50
2019-01-17T03:18:55.033Z,9.00
2019-01-17T03:21:25.498Z,7.30
2019-01-17T03:23:55.941Z,8.53
2019-01-17T03:26:26.387Z,9.03
2019-01-17T03:28:56.815Z,8.30
2019-01-17T03:31:27.242Z,7.30
2019-01-17T03:33:57.646Z,8.23
2019-01-17T03:36:28.120Z,9.37
2019-01-17T03:38:58.622Z,9.77
2019-01-17T03:41:29.048Z,9.70
2019-01-17T03:43:59.468Z,9.90
2019-01-17T03:46:29.877Z,9.63
2019-01-17T03:49:00.325Z,10.70
2019-01-17T03:51:30.737Z,10.43
2019-01-17T03:54:01.324Z,10.60
2019-01-17T03:56:31.727Z,9.60
2019-01-17T03:59:02.305Z,9.77
2019-01-17T04:01:32.798Z,10.23
2019-01-17T04:04:03.304Z,9.30
2019-01-17T04:06:33.696Z,8.50
2019-01-17T04:09:06.148Z,9.97
2019-01-17T04:11:36.548Z,9.50
2019-01-17T04:14:06.961Z,10.17
2019-01-17T04:16:37.331Z,9.30
2019-01-17T04:19:07.832Z,7.77
2019-01-17T04:21:38.385Z,7.80
2019-01-17T04:24:08.761Z,7.97
2019-01-17T04:26:39.240Z,9.37
2019-01-17T04:29:09.661Z,8.03
2019-01-17T04:31:40.068Z,8.90
2019-01-17T04:34:10.416Z,8.40
2019-01-17T04:36:40.787Z,8.50
2019-01-17T04:39:12.776Z,8.80
2019-01-17T04:41:43.130Z,8.70
2019-01-17T04:44:13.481Z,9.17
2019-01-17T04:46:43.881Z,9.57
2019-01-17T04:49:14.314Z,10.20
2019-01-17T04:51:44.718Z,10.60
2019-01-17T04:54:15.060Z,9.80
2019-01-17T04:56:45.469Z,10.30
2019-01-17T04:59:15.821Z,9.53
2019-01-17T05:01:46.283Z,9.20
2019-01-17T05:04:17.919Z,8.70
2019-01-17T05:06:48.320Z,8.67
2019-01-17T05:09:18.822Z,8.13
2019-01-17T05:11:49.255Z,8.03
2019-01-17T05:14:19.599Z,8.17
2019-01-17T05:16:50.114Z,7.80
2019-01-17T05:19:20.500Z,7.70
2019-01-17T05:21:50.877Z,8.10
2019-01-17T05:24:21.397Z,8.27
2019-01-17T05:26:51.821Z,8.60
2019-01-17T05:29:22.310Z,8.70
2019-01-17T05:31:52.678Z,8.47
2019-01-17T05:34:23.185Z,8.50
2019-01-17T05:36:53.571Z,9.37
2019-01-17T05:39:24.016Z,8.03
2019-01-17T05:41:54.398Z,7.10
2019-01-17T05:44:24.875Z,8.50
2019-01-17T05:46:55.275Z,8.70
2019-01-17T05:49:25.648Z,7.53
2019-01-17T05:51:56.090Z,8.77
2019-01-17T05:54:28.086Z,8.90
2019-01-17T05:56:58.535Z,8.80
2019-01-17T05:59:29.156Z,9.33
2019-01-17T06:01:59.586Z,9.40
2019-01-17T06:04:30.026Z,9.80
2019-01-17T06:07:00.737Z,10.70
2019-01-17T06:09:31.379Z,10.40
2019-01-17T06:12:01.885Z,11.40
2019-01-17T06:14:32.387Z,10.93
2019-01-17T06:17:02.826Z,10.47
2019-01-17T06:19:33.357Z,10.43
2019-01-17T06:22:03.765Z,9.80
2019-01-17T06:24:34.210Z,12.10
2019-01-17T06:27:04.601Z,10.77
2019-01-17T06:29:35.301Z,11.50
2019-01-17T06:32:05.801Z,11.80
2019-01-17T06:34:36.173Z,11.37
2019-01-17T06:37:06.672Z,10.97
2019-01-17T06:39:37.191Z,10.90
2019-01-17T06:42:07.742Z,10.67
2019-01-17T06:44:38.396Z,10.93
2019-01-17T06:47:08.808Z,11.23
2019-01-17T06:49:39.212Z,11.13
2019-01-17T06:52:09.640Z,11.00
2019-01-17T06:54:40.016Z,10.87
2019-01-17T06:57:10.445Z,10.83
2019-01-17T06:59:40.880Z,12.23
2019-01-17T07:02:11.364Z,10.70
2019-01-17T07:04:41.862Z,10.60
2019-01-17T07:07:12.380Z,10.77
2019-01-17T07:09:42.846Z,11.00
2019-01-17T07:12:13.298Z,11.27
2019-01-17T07:14:43.662Z,13.03
2019-01-17T07:17:14.085Z,12.10
2019-01-17T07:19:44.491Z,10.83
2019-01-17T07:22:14.915Z,13.33
2019-01-17T07:24:45.369Z,12.23
2019-01-17T07:27:15.755Z,12.00
2019-01-17T07:29:46.843Z,12.17
2019-01-17T07:32:17.283Z,12.80
2019-01-17T07:34:47.740Z,12.97
2019-01-17T07:37:18.146Z,12.40
2019-01-17T07:39:48.559Z,13.00
2019-01-17T07:42:18.990Z,11.10
2019-01-17T07:44:49.372Z,12.70
2019-01-17T07:47:19.777Z,13.00
2019-01-17T07:49:50.252Z,12.83
2019-01-17T07:52:20.833Z,14.23
2019-01-17T07:54:51.361Z,14.63
2019-01-17T07:57:21.780Z,12.80
2019-01-17T07:59:52.275Z,12.77
2019-01-17T08:02:22.667Z,12.73
2019-01-17T08:04:53.152Z,12.40
2019-01-17T08:07:23.689Z,8.73
2019-01-17T08:09:54.743Z,8.90
2019-01-17T08:12:25.113Z,6.20
2019-01-17T08:14:55.477Z,5.70
2019-01-17T08:17:25.873Z,5.73
2019-01-17T08:19:56.343Z,5.80
2019-01-17T08:22:26.745Z,5.00
2019-01-17T08:24:57.153Z,4.60
2019-01-17T08:27:27.547Z,3.87
2019-01-17T08:29:57.900Z,4.33
2019-01-17T08:32:28.362Z,3.87
2019-01-17T08:34:58.761Z,3.60
2019-01-17T08:37:29.183Z,4.63
2019-01-17T08:39:59.539Z,4.33
2019-01-17T08:42:30.061Z,4.63
2019-01-17T08:45:00.403Z,4.47
2019-01-17T08:47:30.888Z,4.70
2019-01-17T08:50:01.248Z,4.33
2019-01-17T08:52:31.647Z,4.50
2019-01-17T08:55:02.067Z,4.53
2019-01-17T08:57:32.569Z,5.07
2019-01-17T09:00:03.207Z,4.30
2019-01-17T09:02:33.634Z,4.80
2019-01-17T09:05:04.126Z,4.03
2019-01-17T09:07:34.641Z,5.43
2019-01-17T09:10:06.296Z,4.30
2019-01-17T09:12:36.695Z,4.60
2019-01-17T09:15:08.972Z,4.83
2019-01-17T09:17:39.512Z,4.70
2019-01-17T09:20:12.498Z,4.03
2019-01-17T09:22:42.864Z,4.53
2019-01-17T09:25:14.495Z,4.30
2019-01-17T09:27:44.951Z,4.50
2019-01-17T09:30:17.075Z,4.70
2019-01-17T09:32:47.530Z,4.70
2019-01-17T09:35:18.251Z,4.27
2019-01-17T09:37:48.801Z,5.57
2019-01-17T09:40:20.459Z,4.77
2019-01-17T09:42:51.029Z,4.67
2019-01-17T09:45:21.433Z,5.47
2019-01-17T09:47:51.983Z,5.00
2019-01-17T09:50:24.202Z,4.63
2019-01-17T09:52:54.731Z,4.50
2019-01-17T09:55:25.238Z,3.73
2019-01-17T09:57:55.702Z,4.10
2019-01-17T10:00:28.073Z,4.97
2019-01-17T10:02:58.519Z,4.07
2019-01-17T10:05:28.895Z,3.90
2019-01-17T10:08:00.408Z,4.30
2019-01-17T10:10:30.969Z,4.07
2019-01-17T10:13:01.417Z,3.83
2019-01-17T10:15:58.621Z,3.83
2019-01-17T10:19:06.299Z,5.10
2019-01-17T10:22:13.056Z,4.27
2019-01-17T10:25:25.795Z,4.80
2019-01-17T10:28:48.054Z,4.23
2019-01-17T10:31:51.606Z,3.80
2019-01-17T10:34:53.580Z,4.10
2019-01-17T10:38:06.893Z,4.87
2019-01-17T10:41:32.821Z,12.57
2019-01-17T10:44:50.473Z,15.23
2019-01-17T10:48:19.414Z,16.20
2019-01-17T10:51:36.412Z,15.00
2019-01-17T10:54:40.714Z,16.50
2019-01-17T10:57:43.396Z,16.40
2019-01-17T11:00:54.744Z,17.27
2019-01-17T11:04:07.036Z,17.67
2019-01-17T11:06:58.930Z,17.80
2019-01-17T11:10:10.156Z,16.13
2019-01-17T11:13:38.029Z,19.27
2019-01-17T11:16:51.527Z,21.33
2019-01-17T11:20:00.172Z,19.17
2019-01-17T11:23:05.916Z,19.17
2019-01-17T11:26:34.333Z,19.10
2019-01-17T11:29:31.783Z,17.37
2019-01-17T11:32:25.314Z,17.47
2019-01-17T11:35:22.131Z,16.47
2019-01-17T11:38:20.474Z,16.70
2019-01-17T11:41:32.680Z,15.83
2019-01-17T11:44:21.237Z,14.50
2019-01-17T11:47:15.798Z,15.03
2019-01-17T11:50:20.767Z,13.43
2019-01-17T11:53:10.828Z,12.60
2019-01-17T11:56:30.939Z,12.80
2019-01-17T11:59:12.207Z,12.60
2019-01-17T12:02:25.846Z,12.27
2019-01-17T12:04:54.647Z,12.27
2019-01-17T12:07:25.037Z,12.97
2019-01-17T12:09:55.503Z,13.17
2019-01-17T12:12:27.593Z,11.77
2019-01-17T12:14:59.609Z,10.90
2019-01-17T12:17:29.973Z,11.30
2019-01-17T12:20:02.087Z,11.30
2019-01-17T12:22:32.652Z,10.30
2019-01-17T12:25:03.056Z,11.30
2019-01-17T12:27:33.670Z,10.17
2019-01-17T12:30:05.630Z,10.80
2019-01-17T12:32:36.033Z,11.30
2019-01-17T12:35:07.187Z,10.70
2019-01-17T12:37:37.595Z,11.10
2019-01-17T12:40:09.814Z,10.87
2019-01-17T12:42:40.381Z,10.90
2019-01-17T12:45:11.225Z,10.57
2019-01-17T12:47:41.613Z,8.17
2019-01-17T12:50:19.342Z,8.83
2019-01-17T12:52:49.778Z,10.07
2019-01-17T12:55:20.186Z,7.80
2019-01-17T12:57:51.564Z,8.07
2019-01-17T13:00:22.179Z,7.83
2019-01-17T13:02:52.602Z,7.90
2019-01-17T13:05:23.317Z,8.50
2019-01-17T13:07:53.783Z,8.40
2019-01-17T13:10:24.338Z,8.63
2019-01-17T13:12:54.881Z,9.13
2019-01-17T13:15:25.381Z,8.50
2019-01-17T13:17:55.849Z,9.90
2019-01-17T13:20:26.249Z,8.60
2019-01-17T13:22:56.889Z,8.10
2019-01-17T13:25:27.435Z,6.23
2019-01-17T13:27:57.856Z,7.50
2019-01-17T13:30:28.337Z,9.17
2019-01-17T13:32:58.705Z,9.40
2019-01-17T13:35:29.127Z,9.07
2019-01-17T13:37:59.604Z,8.83
2019-01-17T13:40:30.003Z,9.10
2019-01-17T13:43:00.465Z,9.13
2019-01-17T13:45:30.867Z,8.90
2019-01-17T13:48:01.407Z,8.93
2019-01-17T13:50:31.830Z,8.23
2019-01-17T13:53:02.286Z,6.47
2019-01-17T13:55:32.850Z,7.77
2019-01-17T13:58:03.336Z,6.27
2019-01-17T14:00:33.931Z,5.83
2019-01-17T14:03:04.319Z,4.97
2019-01-17T14:05:34.871Z,4.23
2019-01-17T14:08:05.552Z,5.00
2019-01-17T14:10:36.022Z,5.40
2019-01-17T14:13:06.377Z,4.80
2019-01-17T14:15:36.762Z,4.77
2019-01-17T14:18:07.349Z,5.40
2019-01-17T14:20:37.851Z,4.90
2019-01-17T14:23:08.364Z,5.03
2019-01-17T14:25:38.899Z,5.03
2019-01-17T14:28:09.272Z,5.33
2019-01-17T14:30:40.096Z,5.77
2019-01-17T14:33:10.597Z,5.57
2019-01-17T14:35:41.118Z,5.27
2019-01-17T14:38:11.553Z,5.30
2019-01-17T14:40:42.144Z,6.30
2019-01-17T14:43:12.557Z,5.30
2019-01-17T14:45:42.980Z,5.33
2019-01-17T14:48:13.398Z,5.47
2019-01-17T14:50:43.798Z,4.90
2019-01-17T14:53:14.322Z,4.87
2019-01-17T14:55:44.859Z,5.93
2019-01-17T14:58:15.308Z,6.47
2019-01-17T15:00:45.799Z,5.50
2019-01-17T15:03:16.207Z,5.60
2019-01-17T15:05:46.827Z,5.40
2019-01-17T15:08:17.350Z,5.40
2019-01-17T15:10:47.787Z,5.60
2019-01-17T15:13:18.220Z,6.67
2019-01-17T15:15:48.640Z,6.40
2019-01-17T15:18:19.204Z,6.27
2019-01-17T15:20:49.586Z,6.20
2019-01-17T15:23:20.104Z,6.57
2019-01-17T15:25:50.512Z,6.23
2019-01-17T15:28:22.517Z,7.00
2019-01-17T15:30:52.940Z,6.50
2019-01-17T15:33:23.312Z,6.10
2019-01-17T15:35:53.712Z,6.10
2019-01-17T15:38:24.117Z,7.03
2019-01-17T15:40:54.730Z,7.13
2019-01-17T15:43:25.131Z,6.83
2019-01-17T15:45:55.546Z,8.20
2019-01-17T15:48:26.037Z,8.23
2019-01-17T15:50:56.446Z,8.30
2019-01-17T15:53:26.880Z,8.23
2019-01-17T15:55:57.254Z,7.80
2019-01-17T15:58:27.639Z,7.20
2019-01-17T16:00:58.078Z,7.67
2019-01-17T16:03:28.462Z,8.00
2019-01-17T16:05:59.015Z,8.00
2019-01-17T16:08:29.466Z,7.77
2019-01-17T16:11:00.681Z,8.03
2019-01-17T16:13:31.118Z,7.90
2019-01-17T16:16:01.514Z,7.43
2019-01-17T16:18:31.885Z,7.37
2019-01-17T16:21:02.261Z,7.30
2019-01-17T16:23:32.612Z,7.30
2019-01-17T16:26:04.969Z,6.83
2019-01-17T16:28:36.781Z,6.90
2019-01-17T16:31:08.390Z,6.67
2019-01-17T16:33:38.792Z,6.70
2019-01-17T16:36:09.233Z,6.73
2019-01-17T16:38:39.691Z,6.97
2019-01-17T16:41:11.766Z,7.27
2019-01-17T16:43:42.138Z,9.27
2019-01-17T16:46:12.622Z,8.17
2019-01-17T16:48:43.002Z,7.90
2019-01-17T16:51:13.429Z,14.87
2019-01-17T16:53:43.911Z,11.23
2019-01-17T16:56:14.448Z,8.73
2019-01-17T16:58:45.171Z,8.10
2019-01-17T17:01:17.269Z,9.80
2019-01-17T17:03:47.708Z,9.97
2019-01-17T17:06:18.122Z,9.17
2019-01-17T17:08:48.592Z,10.17
2019-01-17T17:11:19.087Z,8.53
2019-01-17T17:13:49.590Z,8.00
2019-01-17T17:16:20.134Z,8.07
2019-01-17T17:18:50.643Z,9.73
2019-01-17T17:21:21.076Z,10.00
2019-01-17T17:23:51.624Z,13.43
2019-01-17T17:26:22.145Z,21.77
2019-01-17T17:28:52.640Z,12.40
2019-01-17T17:31:23.245Z,12.20
2019-01-17T17:33:53.730Z,11.37
2019-01-17T17:36:24.178Z,10.03
2019-01-17T17:38:54.690Z,9.10
2019-01-17T17:41:25.131Z,9.30
2019-01-17T17:43:55.635Z,10.37
2019-01-17T17:46:26.043Z,10.47
2019-01-17T17:48:56.524Z,11.07
2019-01-17T17:51:27.010Z,12.20
2019-01-17T17:53:57.438Z,11.37
2019-01-17T17:56:27.938Z,11.70
2019-01-17T17:58:58.339Z,9.80
2019-01-17T18:01:31.694Z,11.33
2019-01-17T18:04:02.095Z,10.63
2019-01-17T18:06:32.569Z,11.43
2019-01-17T18:09:03.041Z,12.13
2019-01-17T18:11:33.502Z,12.43
2019-01-17T18:14:04.091Z,12.40
2019-01-17T18:16:34.599Z,14.77
2019-01-17T18:19:05.254Z,11.30
2019-01-17T18:21:35.865Z,12.70
2019-01-17T18:24:06.480Z,33.40
2019-01-17T18:26:36.898Z,22.13
2019-01-17T18:29:07.465Z,19.53
2019-01-17T18:31:37.995Z,16.90
2019-01-17T18:34:08.471Z,14.43
2019-01-17T18:36:38.900Z,15.90
2019-01-17T18:39:13.780Z,17.10
2019-01-17T18:41:44.194Z,13.97
2019-01-17T18:44:14.718Z,15.47
2019-01-17T18:46:45.302Z,14.93
2019-01-17T18:49:15.747Z,14.20
2019-01-17T18:51:46.135Z,14.80
2019-01-17T18:54:16.564Z,13.90
2019-01-17T18:56:47.082Z,14.20
2019-01-17T18:59:17.628Z,16.20
2019-01-17T19:01:48.043Z,18.10
2019-01-17T19:04:18.506Z,17.37
2019-01-17T19:06:48.895Z,15.90
2019-01-17T19:09:19.358Z,14.80
2019-01-17T19:11:49.830Z,16.57
2019-01-17T19:14:20.310Z,15.60
2019-01-17T19:16:50.748Z,15.50
2019-01-17T19:19:21.254Z,16.07
2019-01-17T19:21:51.661Z,16.10
2019-01-17T19:24:22.116Z,15.77
2019-01-17T19:26:52.579Z,17.10
2019-01-17T19:29:23.034Z,15.87
2019-01-17T19:31:53.467Z,17.97
2019-01-17T19:34:23.978Z,15.63
2019-01-17T19:36:54.517Z,16.70
2019-01-17T19:39:25.011Z,17.00
2019-01-17T19:41:57.094Z,15.73
2019-01-17T19:44:27.580Z,18.27
2019-01-17T19:46:58.070Z,16.83
2019-01-17T19:49:28.470Z,16.43
2019-01-17T19:52:00.522Z,14.70
2019-01-17T19:54:30.944Z,12.97
2019-01-17T19:57:01.582Z,13.57
2019-01-17T19:59:31.999Z,11.60
2019-01-17T20:02:02.421Z,9.80
2019-01-17T20:04:32.844Z,8.37
2019-01-17T20:07:03.353Z,5.07
2019-01-17T20:09:33.751Z,6.80
2019-01-17T20:12:06.173Z,5.43
2019-01-17T20:14:36.572Z,5.73
2019-01-17T20:17:07.182Z,6.40
2019-01-17T20:19:37.653Z,5.43
2019-01-17T20:22:08.055Z,5.20
2019-01-17T20:24:38.647Z,4.93
2019-01-17T20:27:09.094Z,6.40
2019-01-17T20:29:39.507Z,5.50
2019-01-17T20:32:10.032Z,5.57
2019-01-17T20:34:40.461Z,5.13
2019-01-17T20:37:10.883Z,5.40
2019-01-17T20:39:41.296Z,5.83
2019-01-17T20:42:11.635Z,5.20
2019-01-17T20:44:42.087Z,5.50
2019-01-17T20:47:12.441Z,5.57
2019-01-17T20:49:42.855Z,6.27
2019-01-17T20:52:13.252Z,6.13
2019-01-17T20:54:43.788Z,4.90
2019-01-17T20:57:15.073Z,5.50
2019-01-17T20:59:45.486Z,5.40
2019-01-17T21:02:18.508Z,5.47
2019-01-17T21:04:49.596Z,5.10
2019-01-17T21:07:20.041Z,6.03
2019-01-17T21:09:50.454Z,5.60
2019-01-17T21:12:20.959Z,5.30
2019-01-17T21:14:51.320Z,4.40
2019-01-17T21:17:21.802Z,4.97
2019-01-17T21:19:52.171Z,4.13
2019-01-17T21:22:22.687Z,4.67
2019-01-17T21:24:53.125Z,4.70
2019-01-17T21:27:23.694Z,4.53
2019-01-17T21:29:54.104Z,3.13
2019-01-17T21:32:24.587Z,3.40
2019-01-17T21:34:55.257Z,2.90
2019-01-17T21:37:25.802Z,3.03
2019-01-17T21:39:56.219Z,3.00
2019-01-17T21:42:26.637Z,2.30
2019-01-17T21:44:57.036Z,2.37
2019-01-17T21:47:27.446Z,2.53
2019-01-17T21:49:57.860Z,2.60
2019-01-17T21:52:28.201Z,1.50
2019-01-17T21:54:58.596Z,2.20
2019-01-17T21:57:29.294Z,2.03
2019-01-17T21:59:59.657Z,1.87
2019-01-17T22:02:30.045Z,1.90
2019-01-17T22:05:00.548Z,1.53
2019-01-17T22:07:30.920Z,1.50
2019-01-17T22:10:01.980Z,1.90
2019-01-17T22:12:32.755Z,1.43
2019-01-17T22:15:03.230Z,1.47
2019-01-17T22:17:33.608Z,1.47
2019-01-17T22:20:04.030Z,1.53
2019-01-17T22:22:34.396Z,1.27
2019-01-17T22:25:05.626Z,1.37
2019-01-17T22:27:35.980Z,1.47
2019-01-17T22:30:09.170Z,1.50
2019-01-17T22:32:39.631Z,1.43
2019-01-17T22:35:10.186Z,1.40
2019-01-17T22:37:40.562Z,1.33
2019-01-17T22:40:12.631Z,1.10
2019-01-17T22:42:43.000Z,1.17
2019-01-17T22:45:15.910Z,1.43
2019-01-17T22:47:46.456Z,1.30
2019-01-17T22:50:17.550Z,1.17
2019-01-17T22:52:48.431Z,1.23
2019-01-17T22:55:18.928Z,1.10
2019-01-17T22:57:49.330Z,0.93
2019-01-17T23:00:56.396Z,1.10
2019-01-17T23:03:36.668Z,1.23
2019-01-17T23:06:07.334Z,1.30
2019-01-17T23:08:37.683Z,0.60
2019-01-17T23:11:08.175Z,1.27
2019-01-17T23:13:38.861Z,1.00
2019-01-17T23:16:09.349Z,0.90
2019-01-17T23:18:40.847Z,0.80
2019-01-17T23:21:11.365Z,1.20
2019-01-17T23:23:41.764Z,1.07
2019-01-17T23:26:12.423Z,1.50
2019-01-17T23:28:42.807Z,0.93
2019-01-17T23:31:13.224Z,1.17
2019-01-17T23:33:43.622Z,0.80
2019-01-17T23:36:14.093Z,1.10
2019-01-17T23:38:44.504Z,1.03
2019-01-17T23:41:15.044Z,1.00
2019-01-17T23:43:45.390Z,1.10
2019-01-17T23:46:15.820Z,1.03
2019-01-17T23:48:46.186Z,0.97
2019-01-17T23:51:18.295Z,1.20
2019-01-17T23:53:49.001Z,0.70
2019-01-17T23:56:19.427Z,0.70
2019-01-17T23:58:49.862Z,0.80
